sensor_id;sensor_type;location;lat;lon;timestamp;pressure;altitude;pressure_sealevel;temperature;humidity
1954;BME280;977;42.704;23.354;2022-07-05T00:02:05;95268.25;;;22.39;49.87
1954;BME280;977;42.704;23.354;2022-07-05T00:04:31;95259.47;;;22.34;50.18
1954;BME280;977;42.704;23.354;2022-07-05T00:06:56;95257.50;;;22.24;50.25
1954;BME280;977;42.704;23.354;2022-07-05T00:09:40;95261.34;;;22.11;50.90
1954;BME280;977;42.704;23.354;2022-07-05T00:12:07;95264.97;;;22.10;50.82
1954;BME280;977;42.704;23.354;2022-07-05T00:14:32;95267.72;;;22.15;50.87
1954;BME280;977;42.704;23.354;2022-07-05T00:16:58;95261.88;;;22.13;51.04
1954;BME280;977;42.704;23.354;2022-07-05T00:19:23;95265.19;;;22.04;51.21
1954;BME280;977;42.704;23.354;2022-07-05T00:21:49;95258.75;;;22.00;51.24
1954;BME280;977;42.704;23.354;2022-07-05T00:24:14;95256.38;;;21.98;51.72
1954;BME280;977;42.704;23.354;2022-07-05T00:26:40;95259.19;;;21.91;51.71
1954;BME280;977;42.704;23.354;2022-07-05T00:29:05;95247.63;;;21.98;51.04
1954;BME280;977;42.704;23.354;2022-07-05T00:31:30;95247.25;;;21.89;51.81
1954;BME280;977;42.704;23.354;2022-07-05T00:33:56;95248.19;;;21.83;52.22
1954;BME280;977;42.704;23.354;2022-07-05T00:36:21;95236.28;;;21.63;52.44
1954;BME280;977;42.704;23.354;2022-07-05T00:38:47;95251.31;;;21.58;53.08
1954;BME280;977;42.704;23.354;2022-07-05T00:41:12;95242.00;;;21.55;53.40
1954;BME280;977;42.704;23.354;2022-07-05T00:43:52;95237.34;;;21.62;53.04
1954;BME280;977;42.704;23.354;2022-07-05T00:46:17;95239.13;;;21.57;53.45
1954;BME280;977;42.704;23.354;2022-07-05T00:48:43;95244.09;;;21.53;53.70
1954;BME280;977;42.704;23.354;2022-07-05T00:51:09;95243.75;;;21.50;53.72
1954;BME280;977;42.704;23.354;2022-07-05T00:53:41;95232.88;;;21.46;53.99
1954;BME280;977;42.704;23.354;2022-07-05T00:56:35;95221.00;;;21.49;53.94
1954;BME280;977;42.704;23.354;2022-07-05T00:59:00;95241.84;;;21.45;54.27
1954;BME280;977;42.704;23.354;2022-07-05T01:01:27;95233.22;;;21.33;54.85
1954;BME280;977;42.704;23.354;2022-07-05T01:03:52;95223.00;;;21.25;54.88
1954;BME280;977;42.704;23.354;2022-07-05T01:06:19;95239.91;;;21.24;55.15
1954;BME280;977;42.704;23.354;2022-07-05T01:08:44;95241.84;;;21.11;55.62
1954;BME280;977;42.704;23.354;2022-07-05T01:11:11;95240.56;;;21.14;55.38
1954;BME280;977;42.704;23.354;2022-07-05T01:13:38;95249.84;;;21.16;55.90
1954;BME280;977;42.704;23.354;2022-07-05T01:16:04;95248.25;;;21.15;55.71
1954;BME280;977;42.704;23.354;2022-07-05T01:18:31;95241.28;;;21.09;55.90
1954;BME280;977;42.704;23.354;2022-07-05T01:20:58;95253.72;;;21.09;55.99
1954;BME280;977;42.704;23.354;2022-07-05T01:23:27;95251.78;;;21.04;56.33
1954;BME280;977;42.704;23.354;2022-07-05T01:25:53;95246.81;;;21.08;55.72
1954;BME280;977;42.704;23.354;2022-07-05T01:28:19;95249.06;;;20.99;56.34
1954;BME280;977;42.704;23.354;2022-07-05T01:30:46;95251.28;;;20.90;56.67
1954;BME280;977;42.704;23.354;2022-07-05T01:33:11;95263.66;;;20.56;57.11
1954;BME280;977;42.704;23.354;2022-07-05T01:35:37;95258.25;;;20.51;57.66
1954;BME280;977;42.704;23.354;2022-07-05T01:38:03;95255.06;;;20.49;57.67
1954;BME280;977;42.704;23.354;2022-07-05T01:40:29;95244.16;;;20.34;57.90
1954;BME280;977;42.704;23.354;2022-07-05T01:42:55;95255.19;;;20.42;57.82
1954;BME280;977;42.704;23.354;2022-07-05T01:45:21;95251.38;;;20.50;57.97
1954;BME280;977;42.704;23.354;2022-07-05T01:48:10;95249.84;;;20.54;57.77
1954;BME280;977;42.704;23.354;2022-07-05T01:50:42;95253.63;;;20.58;57.59
1954;BME280;977;42.704;23.354;2022-07-05T01:53:23;95256.19;;;20.53;56.62
1954;BME280;977;42.704;23.354;2022-07-05T01:55:50;95256.19;;;20.53;56.76
1954;BME280;977;42.704;23.354;2022-07-05T01:58:16;95256.38;;;20.63;56.67
1954;BME280;977;42.704;23.354;2022-07-05T02:00:46;95260.16;;;20.67;56.56
1954;BME280;977;42.704;23.354;2022-07-05T02:03:13;95252.97;;;20.80;56.49
1954;BME280;977;42.704;23.354;2022-07-05T02:05:40;95253.19;;;20.78;56.60
1954;BME280;977;42.704;23.354;2022-07-05T02:08:06;95247.25;;;20.71;56.80
1954;BME280;977;42.704;23.354;2022-07-05T02:10:32;95255.19;;;20.71;56.73
1954;BME280;977;42.704;23.354;2022-07-05T02:12:57;95241.88;;;20.66;56.98
1954;BME280;977;42.704;23.354;2022-07-05T02:15:23;95253.25;;;20.66;56.98
1954;BME280;977;42.704;23.354;2022-07-05T02:17:48;95252.50;;;20.54;57.35
1954;BME280;977;42.704;23.354;2022-07-05T02:20:14;95253.88;;;20.45;57.50
1954;BME280;977;42.704;23.354;2022-07-05T02:22:39;95246.56;;;20.47;57.25
1954;BME280;977;42.704;23.354;2022-07-05T02:25:05;95257.78;;;20.54;57.22
1954;BME280;977;42.704;23.354;2022-07-05T02:27:30;95257.31;;;20.57;56.28
1954;BME280;977;42.704;23.354;2022-07-05T02:29:56;95258.03;;;20.53;56.67
1954;BME280;977;42.704;23.354;2022-07-05T02:32:21;95261.47;;;20.53;56.83
1954;BME280;977;42.704;23.354;2022-07-05T02:34:47;95266.75;;;20.53;56.59
1954;BME280;977;42.704;23.354;2022-07-05T02:37:12;95252.25;;;20.56;56.34
1954;BME280;977;42.704;23.354;2022-07-05T02:39:38;95259.09;;;20.52;56.92
1954;BME280;977;42.704;23.354;2022-07-05T02:42:03;95260.34;;;20.49;57.39
1954;BME280;977;42.704;23.354;2022-07-05T02:44:29;95261.94;;;20.50;57.66
1954;BME280;977;42.704;23.354;2022-07-05T02:46:54;95261.25;;;20.43;57.77
1954;BME280;977;42.704;23.354;2022-07-05T02:49:20;95269.88;;;20.50;58.04
1954;BME280;977;42.704;23.354;2022-07-05T02:51:45;95264.13;;;20.41;58.61
1954;BME280;977;42.704;23.354;2022-07-05T02:54:11;95274.94;;;20.40;58.63
1954;BME280;977;42.704;23.354;2022-07-05T02:56:36;95268.41;;;20.42;59.17
1954;BME280;977;42.704;23.354;2022-07-05T02:59:02;95265.75;;;20.42;58.92
1954;BME280;977;42.704;23.354;2022-07-05T03:01:28;95272.75;;;20.37;59.09
1954;BME280;977;42.704;23.354;2022-07-05T03:03:54;95273.06;;;20.24;59.88
1954;BME280;977;42.704;23.354;2022-07-05T03:06:19;95286.25;;;20.24;59.85
1954;BME280;977;42.704;23.354;2022-07-05T03:08:45;95272.94;;;20.19;60.03
1954;BME280;977;42.704;23.354;2022-07-05T03:11:10;95256.66;;;20.10;59.46
1954;BME280;977;42.704;23.354;2022-07-05T03:13:36;95275.66;;;19.95;60.50
1954;BME280;977;42.704;23.354;2022-07-05T03:16:01;95274.38;;;19.86;61.05
1954;BME280;977;42.704;23.354;2022-07-05T03:18:27;95269.66;;;20.00;60.67
1954;BME280;977;42.704;23.354;2022-07-05T03:20:52;95271.00;;;20.14;60.67
1954;BME280;977;42.704;23.354;2022-07-05T03:23:18;95261.09;;;20.21;59.91
1954;BME280;977;42.704;23.354;2022-07-05T03:25:43;95273.09;;;20.40;59.80
1954;BME280;977;42.704;23.354;2022-07-05T03:28:09;95279.41;;;20.51;59.67
1954;BME280;977;42.704;23.354;2022-07-05T03:30:35;95270.72;;;20.67;59.53
1954;BME280;977;42.704;23.354;2022-07-05T03:33:00;95265.16;;;20.81;59.33
1954;BME280;977;42.704;23.354;2022-07-05T03:35:26;95277.25;;;20.93;59.19
1954;BME280;977;42.704;23.354;2022-07-05T03:37:52;95269.25;;;21.05;58.93
1954;BME280;977;42.704;23.354;2022-07-05T03:40:18;95282.19;;;21.18;58.57
1954;BME280;977;42.704;23.354;2022-07-05T03:42:43;95274.41;;;21.29;58.22
1954;BME280;977;42.704;23.354;2022-07-05T03:45:09;95264.00;;;21.39;57.75
1954;BME280;977;42.704;23.354;2022-07-05T03:47:35;95271.06;;;21.50;57.44
1954;BME280;977;42.704;23.354;2022-07-05T03:50:00;95261.03;;;21.52;57.40
1954;BME280;977;42.704;23.354;2022-07-05T03:52:26;95263.81;;;21.62;57.81
1954;BME280;977;42.704;23.354;2022-07-05T03:54:51;95258.66;;;21.73;57.62
1954;BME280;977;42.704;23.354;2022-07-05T03:57:16;95258.50;;;21.79;56.78
1954;BME280;977;42.704;23.354;2022-07-05T03:59:42;95254.31;;;21.83;57.24
1954;BME280;977;42.704;23.354;2022-07-05T04:02:08;95252.84;;;21.92;57.63
1954;BME280;977;42.704;23.354;2022-07-05T04:04:33;95261.09;;;21.96;58.66
1954;BME280;977;42.704;23.354;2022-07-05T04:06:59;95268.25;;;21.95;58.85
1954;BME280;977;42.704;23.354;2022-07-05T04:09:25;95268.09;;;22.02;58.52
1954;BME280;977;42.704;23.354;2022-07-05T04:11:50;95273.03;;;22.15;57.94
1954;BME280;977;42.704;23.354;2022-07-05T04:14:16;95272.06;;;22.22;57.59
1954;BME280;977;42.704;23.354;2022-07-05T04:16:44;95269.41;;;22.22;57.26
1954;BME280;977;42.704;23.354;2022-07-05T04:19:10;95264.97;;;22.27;56.71
1954;BME280;977;42.704;23.354;2022-07-05T04:21:35;95273.03;;;22.37;56.44
1954;BME280;977;42.704;23.354;2022-07-05T04:24:01;95269.09;;;22.40;56.48
1954;BME280;977;42.704;23.354;2022-07-05T04:26:26;95277.34;;;22.43;56.84
1954;BME280;977;42.704;23.354;2022-07-05T04:28:52;95277.91;;;22.45;57.47
1954;BME280;977;42.704;23.354;2022-07-05T04:31:17;95264.66;;;22.45;57.79
1954;BME280;977;42.704;23.354;2022-07-05T04:33:43;95265.50;;;22.51;58.20
1954;BME280;977;42.704;23.354;2022-07-05T04:36:08;95271.28;;;22.48;58.41
1954;BME280;977;42.704;23.354;2022-07-05T04:38:34;95267.72;;;22.59;58.34
1954;BME280;977;42.704;23.354;2022-07-05T04:40:59;95270.38;;;22.59;58.69
1954;BME280;977;42.704;23.354;2022-07-05T04:43:25;95268.31;;;22.66;58.65
1954;BME280;977;42.704;23.354;2022-07-05T04:45:50;95263.09;;;22.77;58.00
1954;BME280;977;42.704;23.354;2022-07-05T04:48:16;95261.00;;;22.79;56.07
1954;BME280;977;42.704;23.354;2022-07-05T04:50:41;95253.34;;;22.82;56.08
1954;BME280;977;42.704;23.354;2022-07-05T04:53:07;95267.28;;;22.94;56.39
1954;BME280;977;42.704;23.354;2022-07-05T04:55:33;95264.22;;;23.08;55.88
1954;BME280;977;42.704;23.354;2022-07-05T04:57:58;95260.41;;;22.99;55.42
1954;BME280;977;42.704;23.354;2022-07-05T05:00:24;95258.31;;;23.01;55.67
1954;BME280;977;42.704;23.354;2022-07-05T05:02:49;95261.16;;;23.21;56.19
1954;BME280;977;42.704;23.354;2022-07-05T05:05:15;95270.00;;;23.32;55.64
1954;BME280;977;42.704;23.354;2022-07-05T05:07:44;95281.78;;;23.46;55.17
1954;BME280;977;42.704;23.354;2022-07-05T05:10:11;95268.03;;;23.54;55.49
1954;BME280;977;42.704;23.354;2022-07-05T05:12:37;95260.44;;;23.68;54.99
1954;BME280;977;42.704;23.354;2022-07-05T05:15:08;95265.03;;;23.78;55.08
1954;BME280;977;42.704;23.354;2022-07-05T05:17:36;95260.25;;;23.85;53.73
1954;BME280;977;42.704;23.354;2022-07-05T05:20:09;95279.16;;;23.88;54.17
1954;BME280;977;42.704;23.354;2022-07-05T05:22:35;95274.66;;;23.89;54.06
1954;BME280;977;42.704;23.354;2022-07-05T05:25:00;95271.00;;;24.00;54.41
1954;BME280;977;42.704;23.354;2022-07-05T05:27:26;95274.81;;;24.19;54.76
1954;BME280;977;42.704;23.354;2022-07-05T05:29:51;95262.59;;;24.18;53.50
1954;BME280;977;42.704;23.354;2022-07-05T05:32:17;95274.56;;;24.26;53.80
1954;BME280;977;42.704;23.354;2022-07-05T05:34:43;95296.66;;;24.32;53.90
1954;BME280;977;42.704;23.354;2022-07-05T05:37:08;95276.28;;;24.42;53.45
1954;BME280;977;42.704;23.354;2022-07-05T05:39:34;95276.78;;;24.44;54.13
1954;BME280;977;42.704;23.354;2022-07-05T05:42:00;95272.59;;;24.69;52.91
1954;BME280;977;42.704;23.354;2022-07-05T05:44:25;95267.06;;;24.86;52.39
1954;BME280;977;42.704;23.354;2022-07-05T05:46:51;95273.47;;;25.05;51.79
1954;BME280;977;42.704;23.354;2022-07-05T05:49:17;95263.13;;;25.24;51.16
1954;BME280;977;42.704;23.354;2022-07-05T05:51:42;95275.91;;;25.53;50.62
1954;BME280;977;42.704;23.354;2022-07-05T05:54:08;95265.75;;;25.70;49.94
1954;BME280;977;42.704;23.354;2022-07-05T05:56:33;95283.06;;;25.83;49.30
1954;BME280;977;42.704;23.354;2022-07-05T05:58:59;95283.06;;;25.98;49.45
1954;BME280;977;42.704;23.354;2022-07-05T06:01:24;95287.22;;;26.24;48.39
1954;BME280;977;42.704;23.354;2022-07-05T06:03:50;95275.75;;;26.29;47.74
1954;BME280;977;42.704;23.354;2022-07-05T06:06:15;95289.34;;;26.43;47.49
1954;BME280;977;42.704;23.354;2022-07-05T06:08:41;95287.78;;;26.27;47.01
1954;BME280;977;42.704;23.354;2022-07-05T06:11:07;95273.66;;;26.16;48.31
1954;BME280;977;42.704;23.354;2022-07-05T06:13:35;95283.16;;;26.42;46.53
1954;BME280;977;42.704;23.354;2022-07-05T06:16:13;95284.47;;;26.60;47.04
1954;BME280;977;42.704;23.354;2022-07-05T06:18:39;95290.28;;;26.72;46.08
1954;BME280;977;42.704;23.354;2022-07-05T06:21:04;95299.19;;;27.02;45.15
1954;BME280;977;42.704;23.354;2022-07-05T06:23:30;95291.13;;;27.12;45.04
1954;BME280;977;42.704;23.354;2022-07-05T06:25:56;95277.25;;;27.10;46.34
1954;BME280;977;42.704;23.354;2022-07-05T06:28:24;95298.31;;;27.17;45.97
1954;BME280;977;42.704;23.354;2022-07-05T06:30:50;95266.28;;;27.12;44.49
1954;BME280;977;42.704;23.354;2022-07-05T06:33:18;95275.50;;;27.30;45.00
1954;BME280;977;42.704;23.354;2022-07-05T06:35:46;95286.13;;;27.40;44.85
1954;BME280;977;42.704;23.354;2022-07-05T06:38:14;95264.88;;;27.54;44.17
1954;BME280;977;42.704;23.354;2022-07-05T06:40:41;95292.25;;;27.69;43.53
1954;BME280;977;42.704;23.354;2022-07-05T06:43:09;95276.19;;;27.74;43.28
1954;BME280;977;42.704;23.354;2022-07-05T06:45:35;95282.25;;;27.85;43.07
1954;BME280;977;42.704;23.354;2022-07-05T06:48:02;95276.03;;;27.90;43.74
1954;BME280;977;42.704;23.354;2022-07-05T06:50:32;95274.41;;;27.94;43.08
1954;BME280;977;42.704;23.354;2022-07-05T06:52:58;95259.97;;;27.95;42.94
1954;BME280;977;42.704;23.354;2022-07-05T06:55:25;95262.59;;;28.00;44.10
1954;BME280;977;42.704;23.354;2022-07-05T06:58:04;95260.16;;;28.22;42.97
1954;BME280;977;42.704;23.354;2022-07-05T07:00:33;95254.63;;;28.19;43.64
1954;BME280;977;42.704;23.354;2022-07-05T07:02:59;95272.50;;;28.23;43.54
1954;BME280;977;42.704;23.354;2022-07-05T07:05:25;95248.78;;;28.12;44.06
1954;BME280;977;42.704;23.354;2022-07-05T07:07:50;95251.94;;;28.19;43.39
1954;BME280;977;42.704;23.354;2022-07-05T07:10:37;95256.84;;;28.36;43.22
1954;BME280;977;42.704;23.354;2022-07-05T07:13:03;95253.97;;;28.51;41.87
1954;BME280;977;42.704;23.354;2022-07-05T07:15:29;95251.97;;;28.81;41.58
1954;BME280;977;42.704;23.354;2022-07-05T07:17:55;95254.38;;;29.01;40.57
1954;BME280;977;42.704;23.354;2022-07-05T07:20:21;95248.38;;;29.09;40.51
1954;BME280;977;42.704;23.354;2022-07-05T07:22:47;95251.38;;;29.21;39.28
1954;BME280;977;42.704;23.354;2022-07-05T07:25:15;95257.34;;;29.51;39.28
1954;BME280;977;42.704;23.354;2022-07-05T07:27:50;95267.34;;;29.78;39.03
1954;BME280;977;42.704;23.354;2022-07-05T07:30:18;95265.38;;;29.84;38.44
1954;BME280;977;42.704;23.354;2022-07-05T07:32:45;95266.69;;;30.00;38.38
1954;BME280;977;42.704;23.354;2022-07-05T07:35:11;95263.59;;;29.93;38.86
1954;BME280;977;42.704;23.354;2022-07-05T07:37:53;95256.25;;;29.98;37.90
1954;BME280;977;42.704;23.354;2022-07-05T07:40:19;95250.50;;;30.19;37.11
1954;BME280;977;42.704;23.354;2022-07-05T07:42:44;95252.50;;;30.13;36.41
1954;BME280;977;42.704;23.354;2022-07-05T07:45:10;95257.34;;;30.39;36.03
1954;BME280;977;42.704;23.354;2022-07-05T07:47:36;95248.91;;;30.59;35.12
1954;BME280;977;42.704;23.354;2022-07-05T07:50:04;95249.19;;;30.58;35.18
1954;BME280;977;42.704;23.354;2022-07-05T07:52:31;95251.47;;;30.64;35.49
1954;BME280;977;42.704;23.354;2022-07-05T07:55:01;95259.81;;;30.76;35.22
1954;BME280;977;42.704;23.354;2022-07-05T07:57:27;95265.94;;;30.91;35.03
1954;BME280;977;42.704;23.354;2022-07-05T07:59:52;95255.91;;;31.19;34.86
1954;BME280;977;42.704;23.354;2022-07-05T08:02:18;95251.16;;;31.16;34.93
1954;BME280;977;42.704;23.354;2022-07-05T08:04:49;95244.69;;;31.39;34.80
1954;BME280;977;42.704;23.354;2022-07-05T08:07:16;95247.06;;;31.63;34.25
1954;BME280;977;42.704;23.354;2022-07-05T08:09:43;95251.13;;;31.61;34.76
1954;BME280;977;42.704;23.354;2022-07-05T08:12:08;95244.09;;;31.73;34.95
1954;BME280;977;42.704;23.354;2022-07-05T08:14:34;95248.94;;;31.63;35.00
1954;BME280;977;42.704;23.354;2022-07-05T08:17:00;95249.22;;;30.94;35.99
1954;BME280;977;42.704;23.354;2022-07-05T08:19:25;95254.44;;;30.63;35.95
1954;BME280;977;42.704;23.354;2022-07-05T08:22:09;95242.19;;;30.84;35.81
1954;BME280;977;42.704;23.354;2022-07-05T08:24:37;95236.84;;;31.07;36.19
1954;BME280;977;42.704;23.354;2022-07-05T08:27:03;95238.31;;;31.58;35.21
1954;BME280;977;42.704;23.354;2022-07-05T08:29:31;95240.59;;;32.04;34.31
1954;BME280;977;42.704;23.354;2022-07-05T08:32:04;95238.31;;;32.20;34.22
1954;BME280;977;42.704;23.354;2022-07-05T08:35:07;95241.56;;;32.48;34.41
1954;BME280;977;42.704;23.354;2022-07-05T08:37:33;95231.75;;;32.69;34.28
1954;BME280;977;42.704;23.354;2022-07-05T08:40:08;95227.50;;;32.77;33.43
1954;BME280;977;42.704;23.354;2022-07-05T08:43:03;95231.94;;;32.81;33.58
1954;BME280;977;42.704;23.354;2022-07-05T08:46:03;95228.63;;;32.85;33.23
1954;BME280;977;42.704;23.354;2022-07-05T08:52:45;95224.19;;;33.06;33.05
1954;BME280;977;42.704;23.354;2022-07-05T08:59:11;95209.91;;;33.31;33.36
1954;BME280;977;42.704;23.354;2022-07-05T09:08:20;95200.22;;;32.52;34.07
1954;BME280;977;42.704;23.354;2022-07-05T09:11:01;95205.59;;;32.44;34.17
1954;BME280;977;42.704;23.354;2022-07-05T09:13:36;95183.00;;;32.22;34.85
1954;BME280;977;42.704;23.354;2022-07-05T09:16:09;95190.94;;;32.27;34.64
1954;BME280;977;42.704;23.354;2022-07-05T09:18:52;95186.75;;;32.61;34.85
1954;BME280;977;42.704;23.354;2022-07-05T09:21:40;95188.50;;;33.09;34.11
1954;BME280;977;42.704;23.354;2022-07-05T09:24:08;95180.69;;;33.51;32.99
1954;BME280;977;42.704;23.354;2022-07-05T09:26:44;95180.41;;;33.73;33.32
1954;BME280;977;42.704;23.354;2022-07-05T09:32:33;95166.97;;;34.32;32.17
1954;BME280;977;42.704;23.354;2022-07-05T09:35:18;95172.22;;;34.29;32.84
1954;BME280;977;42.704;23.354;2022-07-05T09:37:44;95165.41;;;34.52;33.11
1954;BME280;977;42.704;23.354;2022-07-05T09:40:10;95168.50;;;34.42;31.62
1954;BME280;977;42.704;23.354;2022-07-05T09:42:36;95177.97;;;33.98;32.51
1954;BME280;977;42.704;23.354;2022-07-05T09:45:01;95160.34;;;33.45;33.79
1954;BME280;977;42.704;23.354;2022-07-05T09:47:27;95172.41;;;33.39;34.14
1954;BME280;977;42.704;23.354;2022-07-05T09:49:58;95156.59;;;33.20;34.58
1954;BME280;977;42.704;23.354;2022-07-05T09:55:16;95142.84;;;32.95;34.93
1954;BME280;977;42.704;23.354;2022-07-05T09:57:44;95142.91;;;33.33;34.92
1954;BME280;977;42.704;23.354;2022-07-05T10:00:19;95144.47;;;33.52;34.17
1954;BME280;977;42.704;23.354;2022-07-05T10:02:53;95152.00;;;33.76;34.24
1954;BME280;977;42.704;23.354;2022-07-05T10:05:50;95127.06;;;33.23;34.28
1954;BME280;977;42.704;23.354;2022-07-05T10:08:16;95131.88;;;32.74;35.53
1954;BME280;977;42.704;23.354;2022-07-05T10:10:45;95131.56;;;32.67;36.06
1954;BME280;977;42.704;23.354;2022-07-05T10:13:16;95126.81;;;32.99;35.52
1954;BME280;977;42.704;23.354;2022-07-05T10:15:43;95128.84;;;33.02;35.25
1954;BME280;977;42.704;23.354;2022-07-05T10:18:11;95118.88;;;32.50;36.09
1954;BME280;977;42.704;23.354;2022-07-05T10:20:39;95125.06;;;32.60;36.86
1954;BME280;977;42.704;23.354;2022-07-05T10:23:12;95114.91;;;32.74;36.81
1954;BME280;977;42.704;23.354;2022-07-05T10:25:40;95117.59;;;33.00;36.09
1954;BME280;977;42.704;23.354;2022-07-05T10:28:07;95116.22;;;33.41;36.29
1954;BME280;977;42.704;23.354;2022-07-05T10:30:34;95106.53;;;33.48;35.67
1954;BME280;977;42.704;23.354;2022-07-05T10:33:05;95114.59;;;33.57;35.90
1954;BME280;977;42.704;23.354;2022-07-05T10:35:31;95110.94;;;33.62;35.86
1954;BME280;977;42.704;23.354;2022-07-05T10:38:01;95103.34;;;32.91;35.64
1954;BME280;977;42.704;23.354;2022-07-05T10:40:31;95101.78;;;31.72;38.16
1954;BME280;977;42.704;23.354;2022-07-05T10:42:59;95097.50;;;31.79;38.34
1954;BME280;977;42.704;23.354;2022-07-05T10:45:30;95106.28;;;32.02;39.29
1954;BME280;977;42.704;23.354;2022-07-05T10:48:14;95102.34;;;32.00;38.76
1954;BME280;977;42.704;23.354;2022-07-05T10:51:00;95093.63;;;32.12;38.24
1954;BME280;977;42.704;23.354;2022-07-05T10:58:41;95081.47;;;32.75;38.04
1954;BME280;977;42.704;23.354;2022-07-05T11:06:44;95076.81;;;32.84;38.06
1954;BME280;977;42.704;23.354;2022-07-05T11:09:16;95078.28;;;32.90;36.39
1954;BME280;977;42.704;23.354;2022-07-05T11:20:01;95056.00;;;33.19;37.43
1954;BME280;977;42.704;23.354;2022-07-05T11:22:28;95048.66;;;33.28;37.10
1954;BME280;977;42.704;23.354;2022-07-05T11:24:55;95079.22;;;33.50;36.05
1954;BME280;977;42.704;23.354;2022-07-05T11:27:24;95057.16;;;33.48;35.66
1954;BME280;977;42.704;23.354;2022-07-05T11:30:02;95051.78;;;33.48;35.19
1954;BME280;977;42.704;23.354;2022-07-05T11:34:55;95051.53;;;33.23;37.06
1954;BME280;977;42.704;23.354;2022-07-05T11:37:25;95060.09;;;33.25;36.32
1954;BME280;977;42.704;23.354;2022-07-05T11:42:48;95050.28;;;33.89;36.41
1954;BME280;977;42.704;23.354;2022-07-05T11:45:19;95032.50;;;33.58;37.28
1954;BME280;977;42.704;23.354;2022-07-05T11:47:45;95056.28;;;33.26;37.98
1954;BME280;977;42.704;23.354;2022-07-05T11:50:12;95051.47;;;33.41;37.52
1954;BME280;977;42.704;23.354;2022-07-05T11:53:01;95031.50;;;33.33;36.94
1954;BME280;977;42.704;23.354;2022-07-05T11:55:28;95026.84;;;33.42;38.25
1954;BME280;977;42.704;23.354;2022-07-05T11:58:10;95027.31;;;33.53;37.55
1954;BME280;977;42.704;23.354;2022-07-05T12:01:00;95033.88;;;33.64;37.60
1954;BME280;977;42.704;23.354;2022-07-05T12:06:40;95028.19;;;33.27;38.27
1954;BME280;977;42.704;23.354;2022-07-05T12:09:14;95031.25;;;32.10;39.05
1954;BME280;977;42.704;23.354;2022-07-05T12:11:50;95009.53;;;32.23;39.63
1954;BME280;977;42.704;23.354;2022-07-05T12:14:51;95011.44;;;32.40;38.60
1954;BME280;977;42.704;23.354;2022-07-05T12:17:28;95002.56;;;32.48;39.26
1954;BME280;977;42.704;23.354;2022-07-05T12:19:56;95010.94;;;32.21;39.20
1954;BME280;977;42.704;23.354;2022-07-05T12:22:43;95005.56;;;32.29;39.54
1954;BME280;977;42.704;23.354;2022-07-05T12:25:14;94996.19;;;32.36;39.59
1954;BME280;977;42.704;23.354;2022-07-05T12:27:42;95013.00;;;32.59;40.29
1954;BME280;977;42.704;23.354;2022-07-05T12:30:10;95005.25;;;32.40;38.80
1954;BME280;977;42.704;23.354;2022-07-05T12:35:41;94996.22;;;32.18;40.30
1954;BME280;977;42.704;23.354;2022-07-05T12:38:11;94999.72;;;32.10;39.32
1954;BME280;977;42.704;23.354;2022-07-05T12:40:47;94974.03;;;32.04;38.90
1954;BME280;977;42.704;23.354;2022-07-05T12:43:20;94995.91;;;32.28;39.91
1954;BME280;977;42.704;23.354;2022-07-05T12:45:59;94994.75;;;32.55;39.92
1954;BME280;977;42.704;23.354;2022-07-05T12:48:38;94983.84;;;32.35;38.67
1954;BME280;977;42.704;23.354;2022-07-05T12:51:05;94991.16;;;32.08;39.52
1954;BME280;977;42.704;23.354;2022-07-05T12:53:32;94972.13;;;32.13;39.72
1954;BME280;977;42.704;23.354;2022-07-05T12:56:16;94999.38;;;32.03;39.84
1954;BME280;977;42.704;23.354;2022-07-05T12:59:02;94969.94;;;31.98;40.08
1954;BME280;977;42.704;23.354;2022-07-05T13:01:30;94969.13;;;32.23;39.50
1954;BME280;977;42.704;23.354;2022-07-05T13:04:15;94963.41;;;32.34;39.79
1954;BME280;977;42.704;23.354;2022-07-05T13:06:49;94955.34;;;32.34;39.89
1954;BME280;977;42.704;23.354;2022-07-05T13:18:11;94954.06;;;32.40;39.20
1954;BME280;977;42.704;23.354;2022-07-05T13:20:40;94957.88;;;32.21;39.05
1954;BME280;977;42.704;23.354;2022-07-05T13:23:05;94948.56;;;32.10;38.68
1954;BME280;977;42.704;23.354;2022-07-05T13:25:44;94943.97;;;31.85;39.50
1954;BME280;977;42.704;23.354;2022-07-05T13:28:10;94941.44;;;31.97;39.93
1954;BME280;977;42.704;23.354;2022-07-05T13:30:35;94945.88;;;32.10;39.81
1954;BME280;977;42.704;23.354;2022-07-05T13:33:01;94934.78;;;32.03;39.74
1954;BME280;977;42.704;23.354;2022-07-05T13:35:26;94941.72;;;32.04;39.29
1954;BME280;977;42.704;23.354;2022-07-05T13:37:52;94940.19;;;31.86;40.01
1954;BME280;977;42.704;23.354;2022-07-05T13:40:18;94930.34;;;32.07;39.42
1954;BME280;977;42.704;23.354;2022-07-05T13:42:50;94935.44;;;31.91;39.73
1954;BME280;977;42.704;23.354;2022-07-05T13:45:16;94932.56;;;31.88;39.71
1954;BME280;977;42.704;23.354;2022-07-05T13:47:47;94931.00;;;31.87;40.39
1954;BME280;977;42.704;23.354;2022-07-05T13:50:13;94939.19;;;31.64;39.26
1954;BME280;977;42.704;23.354;2022-07-05T13:53:04;94927.78;;;31.59;39.28
1954;BME280;977;42.704;23.354;2022-07-05T13:55:42;94925.25;;;31.79;39.99
1954;BME280;977;42.704;23.354;2022-07-05T13:58:38;94924.97;;;31.98;39.76
1954;BME280;977;42.704;23.354;2022-07-05T14:01:09;94918.50;;;31.82;39.95
1954;BME280;977;42.704;23.354;2022-07-05T14:03:42;94926.84;;;31.63;40.01
1954;BME280;977;42.704;23.354;2022-07-05T14:06:10;94912.59;;;31.63;40.77
1954;BME280;977;42.704;23.354;2022-07-05T14:08:36;94917.66;;;31.29;41.85
1954;BME280;977;42.704;23.354;2022-07-05T14:11:04;94895.88;;;31.09;42.01
1954;BME280;977;42.704;23.354;2022-07-05T14:13:32;94894.28;;;30.99;42.22
1954;BME280;977;42.704;23.354;2022-07-05T14:16:00;94896.78;;;30.78;42.75
1954;BME280;977;42.704;23.354;2022-07-05T14:18:25;94888.00;;;31.12;43.14
1954;BME280;977;42.704;23.354;2022-07-05T14:20:51;94893.38;;;31.12;43.16
1954;BME280;977;42.704;23.354;2022-07-05T14:23:30;94900.50;;;31.17;42.81
1954;BME280;977;42.704;23.354;2022-07-05T14:25:59;94896.91;;;30.82;42.23
1954;BME280;977;42.704;23.354;2022-07-05T14:28:46;94906.31;;;30.62;42.66
1954;BME280;977;42.704;23.354;2022-07-05T14:31:12;94909.09;;;30.79;43.11
1954;BME280;977;42.704;23.354;2022-07-05T14:33:38;94898.03;;;30.80;42.97